createdAt,value
2023-05-24T00:01:59.824Z,1.35
2023-05-24T00:04:34.107Z,1.88
2023-05-24T00:07:08.409Z,1.25
2023-05-24T00:09:42.484Z,1.40
2023-05-24T00:12:16.896Z,1.30
2023-05-24T00:14:51.214Z,1.20
2023-05-24T00:17:27.536Z,1.38
2023-05-24T00:20:02.376Z,1.20
2023-05-24T00:22:37.671Z,1.30
2023-05-24T00:25:11.871Z,1.50
2023-05-24T00:27:46.011Z,1.30
2023-05-24T00:30:20.195Z,1.20
2023-05-24T00:32:55.788Z,1.10
2023-05-24T00:35:29.894Z,1.00
2023-05-24T00:38:04.141Z,1.10
2023-05-24T00:40:38.311Z,1.45
2023-05-24T00:43:12.496Z,1.33
2023-05-24T00:45:46.833Z,1.23
2023-05-24T00:48:23.704Z,0.85
2023-05-24T00:50:58.086Z,1.27
2023-05-24T00:53:33.192Z,1.25
2023-05-24T00:56:08.640Z,1.40
2023-05-24T00:58:43.518Z,1.20
2023-05-24T01:01:17.887Z,1.42
2023-05-24T01:03:54.192Z,1.45
2023-05-24T01:06:29.173Z,1.35
2023-05-24T01:09:20.839Z,1.00
2023-05-24T01:12:09.265Z,1.27
2023-05-24T01:14:57.298Z,1.00
2023-05-24T01:17:38.564Z,1.08
2023-05-24T01:20:17.112Z,0.82
2023-05-24T01:23:16.762Z,0.93
2023-05-24T01:26:07.124Z,1.10
2023-05-24T01:28:44.420Z,1.00
2023-05-24T01:31:20.272Z,1.00
2023-05-24T01:33:54.594Z,1.30
2023-05-24T01:36:28.711Z,0.80
2023-05-24T01:39:03.086Z,0.90
2023-05-24T01:41:44.832Z,1.10
2023-05-24T01:44:30.724Z,1.48
2023-05-24T01:47:15.218Z,0.85
2023-05-24T01:49:55.293Z,1.10
2023-05-24T01:52:33.114Z,1.08
2023-05-24T01:55:10.729Z,0.90
2023-05-24T01:57:47.522Z,1.48
2023-05-24T02:00:23.855Z,1.23
2023-05-24T02:03:00.018Z,1.10
2023-05-24T02:05:34.412Z,1.50
2023-05-24T02:08:08.950Z,0.90
2023-05-24T02:10:43.300Z,1.10
2023-05-24T02:13:18.233Z,1.20
2023-05-24T02:15:54.838Z,1.27
2023-05-24T02:18:34.533Z,1.20
2023-05-24T02:21:09.025Z,1.20
2023-05-24T02:23:43.178Z,1.33
2023-05-24T02:26:18.480Z,1.15
2023-05-24T02:28:52.590Z,1.40
2023-05-24T02:31:28.905Z,0.75
2023-05-24T02:34:03.307Z,1.40
2023-05-24T02:36:37.574Z,0.90
2023-05-24T02:39:11.694Z,1.17
2023-05-24T02:41:45.802Z,1.50
2023-05-24T02:44:19.974Z,1.20
2023-05-24T02:46:55.452Z,1.30
2023-05-24T02:49:29.582Z,1.52
2023-05-24T02:52:03.688Z,1.63
2023-05-24T02:54:37.900Z,1.20
2023-05-24T02:57:12.000Z,1.15
2023-05-24T02:59:46.462Z,1.33
2023-05-24T03:02:22.486Z,1.50
2023-05-24T03:04:56.728Z,1.50
2023-05-24T03:07:30.860Z,1.17
2023-05-24T03:10:05.977Z,1.55
2023-05-24T03:12:40.122Z,1.25
2023-05-24T03:15:14.221Z,1.38
2023-05-24T03:17:49.694Z,1.30
2023-05-24T03:20:24.708Z,1.08
2023-05-24T03:22:58.854Z,0.85
2023-05-24T03:25:32.999Z,1.50
2023-05-24T03:28:07.191Z,1.35
2023-05-24T03:30:41.518Z,1.40
2023-05-24T03:33:17.297Z,1.25
2023-05-24T03:35:51.411Z,1.40
2023-05-24T03:38:25.620Z,1.60
2023-05-24T03:40:59.719Z,1.27
2023-05-24T03:43:33.838Z,1.80
2023-05-24T03:46:07.963Z,1.48
2023-05-24T03:48:43.498Z,1.58
2023-05-24T03:51:17.959Z,1.55
2023-05-24T03:53:52.183Z,1.48
2023-05-24T03:56:28.286Z,1.25
2023-05-24T03:59:04.003Z,1.30
2023-05-24T04:01:38.150Z,1.70
2023-05-24T04:04:13.649Z,1.23
2023-05-24T04:06:48.257Z,1.33
2023-05-24T04:09:23.876Z,1.65
2023-05-24T04:11:58.014Z,2.00
2023-05-24T04:14:32.088Z,1.50
2023-05-24T04:17:08.118Z,1.33
2023-05-24T04:19:43.585Z,1.42
2023-05-24T04:22:18.548Z,1.55
2023-05-24T04:24:52.834Z,1.65
2023-05-24T04:27:27.293Z,1.33
2023-05-24T04:30:01.427Z,1.48
2023-05-24T04:32:36.906Z,1.33
2023-05-24T04:35:12.776Z,1.95
2023-05-24T04:37:48.336Z,1.55
2023-05-24T04:40:22.816Z,1.90
2023-05-24T04:42:56.965Z,1.92
2023-05-24T04:45:32.896Z,1.55
2023-05-24T04:48:07.754Z,1.50
2023-05-24T04:50:43.483Z,1.60
2023-05-24T04:53:18.000Z,1.25
2023-05-24T04:55:52.589Z,1.40
2023-05-24T04:58:26.875Z,1.60
2023-05-24T05:01:01.017Z,1.83
2023-05-24T05:03:35.228Z,1.90
2023-05-24T05:06:10.843Z,1.60
2023-05-24T05:08:44.922Z,1.77
2023-05-24T05:11:20.580Z,1.88
2023-05-24T05:13:54.961Z,1.55
2023-05-24T05:16:29.360Z,1.95
2023-05-24T05:19:04.617Z,1.60
2023-05-24T05:21:40.583Z,1.52
2023-05-24T05:24:17.153Z,1.77
2023-05-24T05:26:51.260Z,2.58
2023-05-24T05:29:25.336Z,1.50
2023-05-24T05:31:59.581Z,1.73
2023-05-24T05:34:33.751Z,1.83
2023-05-24T05:37:09.326Z,1.40
2023-05-24T05:39:43.492Z,1.75
2023-05-24T05:42:17.557Z,1.30
2023-05-24T05:44:52.674Z,1.70
2023-05-24T05:47:26.893Z,1.77
2023-05-24T05:50:01.136Z,1.60
2023-05-24T05:52:36.639Z,1.35
2023-05-24T05:55:12.249Z,2.00
2023-05-24T05:57:46.357Z,1.90
2023-05-24T06:00:23.424Z,1.63
2023-05-24T06:02:57.823Z,1.90
2023-05-24T06:05:32.043Z,1.45
2023-05-24T06:08:07.453Z,1.48
2023-05-24T06:10:41.898Z,1.58
2023-05-24T06:13:16.363Z,1.67
2023-05-24T06:15:52.786Z,1.40
2023-05-24T06:18:27.810Z,1.48
2023-05-24T06:21:01.967Z,1.42
2023-05-24T06:23:37.818Z,1.10
2023-05-24T06:26:12.062Z,1.27
2023-05-24T06:28:46.221Z,1.48
2023-05-24T06:31:20.317Z,1.48
2023-05-24T06:34:03.754Z,1.30
2023-05-24T06:36:42.997Z,1.48
2023-05-24T06:39:18.997Z,1.63
2023-05-24T06:41:53.931Z,1.65
2023-05-24T06:44:34.004Z,1.48
2023-05-24T06:47:09.438Z,1.23
2023-05-24T06:49:44.007Z,1.25
2023-05-24T06:52:18.172Z,1.50
2023-05-24T06:54:53.771Z,1.50
2023-05-24T06:57:27.843Z,2.03
2023-05-24T07:00:02.513Z,1.38
2023-05-24T07:02:36.709Z,1.70
2023-05-24T07:05:12.293Z,1.85
2023-05-24T07:07:46.592Z,1.38
2023-05-24T07:10:22.062Z,1.42
2023-05-24T07:12:56.179Z,1.52
2023-05-24T07:15:30.291Z,2.33
2023-05-24T07:18:04.523Z,1.52
2023-05-24T07:20:38.902Z,1.80
2023-05-24T07:23:13.115Z,1.55
2023-05-24T07:25:49.180Z,1.60
2023-05-24T07:28:23.312Z,1.90
2023-05-24T07:30:57.547Z,1.52
2023-05-24T07:33:32.081Z,1.50
2023-05-24T07:36:07.597Z,2.22
2023-05-24T07:38:41.681Z,2.05
2023-05-24T07:41:17.105Z,1.50
2023-05-24T07:43:51.143Z,1.98
2023-05-24T07:46:25.272Z,1.20
2023-05-24T07:48:59.688Z,1.60
2023-05-24T07:51:33.888Z,1.85
2023-05-24T07:54:07.934Z,1.65
2023-05-24T07:56:44.615Z,1.73
2023-05-24T07:59:19.169Z,1.52
2023-05-24T08:01:53.948Z,1.75
2023-05-24T08:04:28.089Z,1.90
2023-05-24T08:07:03.207Z,1.38
2023-05-24T08:09:38.371Z,1.58
2023-05-24T08:12:16.964Z,1.33
2023-05-24T08:14:51.261Z,1.60
2023-05-24T08:17:25.756Z,2.35
2023-05-24T08:19:59.956Z,1.75
2023-05-24T08:22:34.163Z,1.50
2023-05-24T08:25:09.421Z,1.70
2023-05-24T08:27:44.934Z,1.40
2023-05-24T08:30:19.978Z,1.92
2023-05-24T08:32:54.056Z,1.70
2023-05-24T08:35:28.144Z,1.60
2023-05-24T08:38:02.223Z,1.58
2023-05-24T08:40:36.357Z,1.60
2023-05-24T08:43:12.825Z,2.28
2023-05-24T08:45:47.277Z,2.20
2023-05-24T08:48:22.825Z,1.65
2023-05-24T08:50:58.444Z,2.05
2023-05-24T08:53:36.176Z,2.00
2023-05-24T08:56:11.310Z,2.03
2023-05-24T08:58:47.299Z,1.58
2023-05-24T09:01:22.418Z,1.70
2023-05-24T09:03:57.361Z,1.38
2023-05-24T09:06:32.587Z,1.67
2023-05-24T09:09:09.265Z,1.63
2023-05-24T09:11:45.022Z,1.90
2023-05-24T09:14:21.603Z,1.80
2023-05-24T09:16:56.152Z,1.70
2023-05-24T09:19:30.270Z,1.92
2023-05-24T09:22:04.407Z,1.63
2023-05-24T09:24:42.507Z,2.05
2023-05-24T09:27:17.307Z,1.98
2023-05-24T09:29:53.418Z,2.20
2023-05-24T09:32:28.712Z,2.25
2023-05-24T09:35:02.835Z,1.30
2023-05-24T09:37:40.519Z,2.13
2023-05-24T09:40:20.660Z,1.38
2023-05-24T09:43:10.142Z,1.55
2023-05-24T09:45:47.620Z,1.38
2023-05-24T09:48:22.019Z,1.58
2023-05-24T09:51:04.965Z,2.00
2023-05-24T09:53:39.220Z,1.15
2023-05-24T09:56:13.659Z,1.67
2023-05-24T09:58:48.096Z,1.60
2023-05-24T10:01:26.900Z,1.75
2023-05-24T10:04:03.773Z,1.92
2023-05-24T10:06:40.202Z,1.73
2023-05-24T10:09:15.501Z,1.67
2023-05-24T10:11:50.073Z,1.70
2023-05-24T10:14:26.783Z,1.50
2023-05-24T10:17:02.665Z,1.80
2023-05-24T10:19:39.140Z,1.65
2023-05-24T10:22:15.864Z,1.98
2023-05-24T10:24:58.974Z,1.48
2023-05-24T10:27:33.999Z,1.90
2023-05-24T10:30:16.525Z,1.80
2023-05-24T10:32:53.078Z,1.83
2023-05-24T10:35:28.367Z,1.98
2023-05-24T10:38:07.771Z,1.58
2023-05-24T10:40:44.089Z,1.85
2023-05-24T10:43:19.221Z,1.60
2023-05-24T10:45:53.429Z,1.38
2023-05-24T10:48:40.423Z,1.45
2023-05-24T10:51:36.807Z,1.42
2023-05-24T10:54:19.784Z,1.85
2023-05-24T10:56:54.019Z,1.92
2023-05-24T10:59:37.545Z,1.25
2023-05-24T11:02:15.099Z,1.58
2023-05-24T11:04:51.351Z,1.88
2023-05-24T11:07:26.384Z,1.92
2023-05-24T11:10:08.148Z,2.03
2023-05-24T11:12:43.123Z,1.85
2023-05-24T11:15:25.166Z,1.55
2023-05-24T11:18:18.193Z,1.95
2023-05-24T11:20:54.142Z,2.08
2023-05-24T11:23:30.211Z,1.83
2023-05-24T11:26:05.217Z,2.13
2023-05-24T11:28:40.543Z,1.83
2023-05-24T11:31:14.728Z,2.13
2023-05-24T11:33:48.789Z,2.00
2023-05-24T11:36:25.732Z,1.50
2023-05-24T11:38:59.892Z,1.95
2023-05-24T11:41:38.505Z,1.67
2023-05-24T11:44:13.672Z,1.75
2023-05-24T11:46:48.110Z,1.85
2023-05-24T11:49:23.785Z,1.50
2023-05-24T11:52:00.974Z,1.77
2023-05-24T11:54:37.283Z,1.85
2023-05-24T11:57:13.636Z,1.52
2023-05-24T11:59:48.201Z,2.05
2023-05-24T12:02:23.500Z,1.40
2023-05-24T12:05:09.747Z,1.83
2023-05-24T12:07:48.835Z,2.08
2023-05-24T12:10:23.110Z,2.15
2023-05-24T12:12:59.089Z,1.55
2023-05-24T12:15:33.389Z,1.42
2023-05-24T12:18:20.138Z,1.95
2023-05-24T12:20:54.659Z,2.05
2023-05-24T12:23:32.531Z,1.50
2023-05-24T12:26:06.913Z,1.40
2023-05-24T12:28:42.031Z,1.80
2023-05-24T12:31:16.400Z,1.65
2023-05-24T12:33:53.509Z,1.75
2023-05-24T12:36:30.251Z,1.92
2023-05-24T12:39:20.448Z,1.65
2023-05-24T12:41:56.025Z,1.90
2023-05-24T12:44:32.377Z,1.58
2023-05-24T12:47:09.309Z,1.73
2023-05-24T12:49:44.409Z,1.42
2023-05-24T12:52:18.465Z,1.48
2023-05-24T12:54:53.946Z,1.63
2023-05-24T12:57:28.694Z,1.80
2023-05-24T13:00:03.225Z,1.77
2023-05-24T13:02:40.009Z,1.85
2023-05-24T13:05:14.778Z,1.60
2023-05-24T13:07:48.941Z,1.92
2023-05-24T13:10:25.031Z,1.65
2023-05-24T13:12:59.231Z,1.70
2023-05-24T13:15:33.462Z,1.70
2023-05-24T13:18:08.843Z,1.63
2023-05-24T13:20:43.475Z,1.58
2023-05-24T13:23:18.232Z,1.50
2023-05-24T13:25:54.261Z,1.50
2023-05-24T13:28:30.613Z,1.45
2023-05-24T13:31:05.335Z,1.25
2023-05-24T13:33:39.481Z,2.05
2023-05-24T13:36:14.180Z,1.55
2023-05-24T13:38:52.295Z,1.52
2023-05-24T13:41:32.921Z,1.48
2023-05-24T13:44:07.306Z,1.48
2023-05-24T13:46:41.697Z,1.55
2023-05-24T13:49:16.074Z,1.40
2023-05-24T13:51:50.471Z,1.73
2023-05-24T13:54:24.725Z,1.65
2023-05-24T13:57:00.207Z,1.73
2023-05-24T13:59:34.370Z,1.25
2023-05-24T14:02:09.182Z,1.75
2023-05-24T14:04:43.887Z,1.50
2023-05-24T14:07:18.126Z,1.70
2023-05-24T14:09:52.202Z,1.42
2023-05-24T14:12:27.834Z,1.58
2023-05-24T14:15:01.973Z,1.27
2023-05-24T14:17:36.113Z,0.95
2023-05-24T14:20:10.904Z,1.30
2023-05-24T14:22:45.012Z,1.50
2023-05-24T14:25:19.375Z,1.80
2023-05-24T14:27:54.799Z,1.55
2023-05-24T14:30:29.007Z,1.35
2023-05-24T14:33:03.129Z,1.17
2023-05-24T14:35:39.732Z,1.02
2023-05-24T14:38:14.294Z,1.52
2023-05-24T14:40:48.513Z,1.75
2023-05-24T14:43:24.105Z,1.40
2023-05-24T14:45:58.258Z,1.50
2023-05-24T14:48:32.408Z,1.55
2023-05-24T14:51:06.767Z,1.52
2023-05-24T14:53:41.137Z,1.20
2023-05-24T14:56:15.235Z,1.60
2023-05-24T14:58:51.581Z,1.52
2023-05-24T15:01:27.185Z,1.70
2023-05-24T15:04:01.753Z,1.30
2023-05-24T15:06:36.833Z,1.40
2023-05-24T15:09:11.734Z,1.27
2023-05-24T15:11:46.205Z,1.10
2023-05-24T15:14:21.884Z,1.20
2023-05-24T15:16:55.996Z,1.42
2023-05-24T15:19:30.084Z,1.02
2023-05-24T15:22:04.803Z,1.38
2023-05-24T15:24:38.964Z,1.25
2023-05-24T15:27:13.043Z,0.93
2023-05-24T15:29:48.513Z,1.50
2023-05-24T15:32:22.624Z,1.10
2023-05-24T15:34:56.971Z,1.27
2023-05-24T15:37:31.521Z,1.10
2023-05-24T15:40:07.756Z,0.93
2023-05-24T15:42:42.024Z,0.90
2023-05-24T15:45:17.515Z,1.10
2023-05-24T15:47:51.857Z,0.90
2023-05-24T15:50:45.691Z,0.93
2023-05-24T15:53:21.807Z,0.93
2023-05-24T15:55:57.501Z,1.00
2023-05-24T15:58:31.708Z,1.13
2023-05-24T16:01:07.363Z,1.35
2023-05-24T16:03:41.612Z,0.85
2023-05-24T16:06:15.776Z,0.75
2023-05-24T16:08:50.252Z,1.10
2023-05-24T16:11:24.659Z,0.70
2023-05-24T16:13:58.793Z,1.13
2023-05-24T16:16:34.300Z,0.90
2023-05-24T16:19:08.502Z,0.93
2023-05-24T16:21:42.663Z,0.98
2023-05-24T16:24:16.932Z,0.93
2023-05-24T16:26:51.011Z,0.93
2023-05-24T16:29:25.168Z,1.00
2023-05-24T16:32:00.622Z,1.10
2023-05-24T16:34:51.972Z,0.60
2023-05-24T16:37:29.070Z,0.77
2023-05-24T16:40:03.858Z,1.00
2023-05-24T16:42:37.923Z,1.00
2023-05-24T16:45:12.565Z,0.82
2023-05-24T16:47:48.213Z,0.70
2023-05-24T16:50:22.509Z,1.00
2023-05-24T16:52:56.538Z,0.70
2023-05-24T16:55:30.639Z,1.00
2023-05-24T16:58:04.722Z,1.05
2023-05-24T17:00:38.873Z,0.82
2023-05-24T17:03:14.423Z,1.20
2023-05-24T17:05:49.297Z,0.70
2023-05-24T17:08:25.682Z,0.98
2023-05-24T17:10:59.874Z,0.82
2023-05-24T17:13:34.657Z,0.80
2023-05-24T17:16:10.864Z,1.02
2023-05-24T17:18:46.549Z,1.05
2023-05-24T17:21:21.135Z,0.90
2023-05-24T17:23:55.939Z,1.10
2023-05-24T17:26:30.038Z,0.85
2023-05-24T17:29:04.092Z,0.40
2023-05-24T17:31:38.533Z,0.70
2023-05-24T17:34:16.285Z,0.60
2023-05-24T17:36:50.411Z,0.60
2023-05-24T17:39:24.467Z,1.52
2023-05-24T17:41:58.591Z,1.10
2023-05-24T17:44:32.656Z,0.90
2023-05-24T17:47:06.910Z,0.90
2023-05-24T17:49:42.637Z,0.93
2023-05-24T17:52:16.721Z,0.98
2023-05-24T17:54:50.811Z,0.70
2023-05-24T17:57:24.924Z,0.85
2023-05-24T17:59:59.013Z,1.00
2023-05-24T18:02:33.127Z,1.00
2023-05-24T18:05:09.842Z,0.90
2023-05-24T18:07:43.929Z,0.90
2023-05-24T18:10:18.059Z,1.00
2023-05-24T18:12:52.146Z,0.68
2023-05-24T18:15:26.267Z,0.80
2023-05-24T18:18:00.426Z,0.60
2023-05-24T18:20:37.895Z,0.68
2023-05-24T18:23:12.391Z,1.10
2023-05-24T18:25:46.587Z,0.75
2023-05-24T18:28:20.906Z,0.88
2023-05-24T18:30:57.805Z,0.82
2023-05-24T18:33:32.078Z,1.10
2023-05-24T18:36:08.475Z,0.88
2023-05-24T18:38:42.807Z,0.75
2023-05-24T18:41:17.369Z,0.73
2023-05-24T18:43:51.589Z,0.75
2023-05-24T18:46:26.134Z,0.95
2023-05-24T18:49:01.743Z,0.80
2023-05-24T18:51:37.490Z,0.80
2023-05-24T18:54:13.622Z,0.93
2023-05-24T18:56:47.782Z,0.60
2023-05-24T18:59:28.906Z,0.65
2023-05-24T19:02:03.328Z,1.02
2023-05-24T19:04:37.879Z,1.15
2023-05-24T19:07:13.380Z,0.80
2023-05-24T19:09:47.437Z,0.80
2023-05-24T19:12:21.527Z,0.95
2023-05-24T19:14:55.690Z,0.88
2023-05-24T19:17:29.926Z,0.70
2023-05-24T19:20:04.625Z,0.75
2023-05-24T19:22:40.115Z,0.80
2023-05-24T19:25:14.365Z,0.70
2023-05-24T19:27:59.178Z,0.80
2023-05-24T19:30:36.837Z,0.70
2023-05-24T19:33:11.533Z,0.68
2023-05-24T19:35:46.028Z,0.90
2023-05-24T19:38:21.549Z,1.02
2023-05-24T19:40:55.728Z,0.98
2023-05-24T19:43:29.904Z,0.52
2023-05-24T19:46:05.685Z,0.73
2023-05-24T19:48:40.568Z,0.85
2023-05-24T19:51:15.721Z,0.70
2023-05-24T19:53:51.217Z,0.82
2023-05-24T19:56:26.092Z,0.70
2023-05-24T19:59:00.181Z,0.80
2023-05-24T20:01:34.410Z,0.70
2023-05-24T20:04:08.643Z,0.80
2023-05-24T20:06:42.865Z,0.68
2023-05-24T20:09:18.921Z,1.00
2023-05-24T20:11:53.059Z,0.65
2023-05-24T20:14:28.084Z,1.05
2023-05-24T20:17:02.159Z,0.40
2023-05-24T20:19:36.913Z,0.70
2023-05-24T20:22:12.433Z,0.60
2023-05-24T20:24:47.921Z,0.80
2023-05-24T20:27:22.353Z,0.90
2023-05-24T20:29:56.512Z,0.57
2023-05-24T20:32:30.725Z,0.57
2023-05-24T20:35:05.050Z,0.95
2023-05-24T20:37:40.425Z,0.63
2023-05-24T20:40:23.958Z,0.70
2023-05-24T20:42:58.068Z,0.70
2023-05-24T20:45:32.228Z,0.40
2023-05-24T20:48:06.950Z,0.68
2023-05-24T20:50:41.110Z,0.90
2023-05-24T20:53:15.256Z,0.73
2023-05-24T20:55:50.728Z,0.82
2023-05-24T20:58:24.813Z,0.75
2023-05-24T21:00:59.236Z,0.70
2023-05-24T21:03:33.805Z,1.08
2023-05-24T21:06:08.279Z,0.50
2023-05-24T21:08:44.304Z,0.70
2023-05-24T21:11:20.122Z,0.77
2023-05-24T21:13:56.580Z,1.10
2023-05-24T21:16:30.645Z,0.57
2023-05-24T21:19:04.717Z,0.60
2023-05-24T21:21:38.826Z,0.80
2023-05-24T21:24:12.986Z,0.82
2023-05-24T21:26:48.423Z,1.13
2023-05-24T21:29:22.492Z,0.70
2023-05-24T21:31:56.564Z,0.70
2023-05-24T21:34:30.860Z,0.68
2023-05-24T21:37:05.909Z,0.75
2023-05-24T21:39:39.982Z,0.88
2023-05-24T21:42:15.374Z,0.68
2023-05-24T21:44:49.450Z,0.80
2023-05-24T21:47:23.567Z,1.10
2023-05-24T21:49:57.631Z,1.05
2023-05-24T21:52:31.735Z,0.70
2023-05-24T21:55:07.327Z,0.80
2023-05-24T21:57:42.713Z,0.98
2023-05-24T22:00:19.878Z,0.75
2023-05-24T22:02:54.375Z,0.70
2023-05-24T22:05:28.711Z,0.82
2023-05-24T22:08:03.576Z,1.00
2023-05-24T22:10:37.835Z,0.80
2023-05-24T22:13:13.305Z,0.68
2023-05-24T22:15:47.403Z,1.08
2023-05-24T22:18:21.998Z,0.90
2023-05-24T22:20:59.415Z,0.70
2023-05-24T22:23:34.149Z,0.80
2023-05-24T22:26:08.981Z,0.90
2023-05-24T22:29:01.211Z,1.25
2023-05-24T22:31:36.555Z,0.65
2023-05-24T22:34:12.618Z,0.68
2023-05-24T22:36:46.782Z,0.50
2023-05-24T22:39:21.088Z,1.15
2023-05-24T22:41:55.188Z,0.82
2023-05-24T22:44:30.642Z,0.63
2023-05-24T22:47:05.300Z,1.00
2023-05-24T22:49:39.444Z,0.77
2023-05-24T22:52:16.532Z,0.70
2023-05-24T22:54:50.586Z,1.02
2023-05-24T22:57:24.686Z,0.75
2023-05-24T23:00:00.162Z,1.17
2023-05-24T23:02:36.238Z,0.68
2023-05-24T23:05:11.346Z,0.63
2023-05-24T23:07:45.980Z,1.30
2023-05-24T23:10:20.102Z,0.80
2023-05-24T23:12:55.203Z,0.55
2023-05-24T23:15:31.951Z,0.68
2023-05-24T23:18:07.068Z,0.60
2023-05-24T23:20:41.291Z,0.70
2023-05-24T23:23:15.466Z,0.77
2023-05-24T23:25:50.752Z,1.10
2023-05-24T23:28:24.923Z,0.82
2023-05-24T23:31:00.447Z,1.00
2023-05-24T23:33:34.562Z,0.93
2023-05-24T23:36:09.856Z,1.13
2023-05-24T23:38:44.023Z,1.08
2023-05-24T23:41:18.144Z,0.70
2023-05-24T23:43:53.104Z,0.80
2023-05-24T23:46:28.587Z,1.13
2023-05-24T23:49:02.888Z,0.82
2023-05-24T23:51:37.015Z,0.80
2023-05-24T23:54:11.254Z,0.90
2023-05-24T23:56:45.552Z,0.60
2023-05-24T23:59:19.629Z,1.10
